Atlantis Alhambra — 9HA2101 — position and weather

sailwx.info

Track history (hours):
 
Tides and Currents Weather Stations Pressure Air Temp Water Temp Dewpoint Dewpoint Depression Visibility Wind Speed Wind Dir Waves Ship Positions

Atlantis Alhambra

Last reported at 2018-Jun-19 15:38 UTC. Time now 2018-Jun-20 07:51 UTC.
Position N 41°10' W 008°52'.

Length 109 m; draft 5.4 m.

Type: Tanker. MMSI: 249960000.

Date/timePositionNaut miles runAvg speedWind from/ knotsBaromVisibWave heightAir tempDewpointWater temp
2018-Jun-19 15:38N 41°10' W 008°52'111.1
2018-Jun-19 15:30N 41°10' W 008°50'511.0
2018-Jun-19 15:01N 41°10' W 008°43'1 2.0
2018-Jun-19 14:28N 41°11' W 008°43'0 0.0
2018-Jun-19 13:58N 41°11' W 008°43'0 0.0
2018-Jun-19 13:28N 41°11' W 008°43'0 0.0
2018-Jun-19 12:58N 41°11' W 008°43'0 0.0
2018-Jun-19 12:28N 41°11' W 008°43'0 0.0
2018-Jun-19 11:58N 41°11' W 008°43'0 0.0
2018-Jun-19 11:28N 41°11' W 008°43'0 0.0
2018-Jun-19 10:58N 41°11' W 008°43'0 0.0
2018-Jun-19 10:28N 41°11' W 008°43'0 0.0
2018-Jun-19 09:58N 41°11' W 008°43'0 0.0
2018-Jun-19 09:28N 41°11' W 008°43'0 0.0
2018-Jun-19 08:58N 41°11' W 008°43'0 0.0
2018-Jun-19 08:28N 41°11' W 008°43'0 0.0
2018-Jun-19 07:58N 41°11' W 008°43'0 0.0
2018-Jun-19 07:28N 41°11' W 008°43'0 0.0
2018-Jun-19 06:58N 41°11' W 008°43'0 0.0
2018-Jun-19 06:28N 41°11' W 008°43'0 0.0
2018-Jun-19 05:58N 41°11' W 008°43'0 0.0
2018-Jun-19 05:28N 41°11' W 008°43'0 0.0
2018-Jun-19 04:58N 41°11' W 008°43'0 0.0
2018-Jun-19 04:28N 41°11' W 008°43'0 0.0
2018-Jun-19 03:58N 41°11' W 008°43'0 0.0
2018-Jun-19 03:28N 41°11' W 008°43'0 0.0
2018-Jun-19 02:58N 41°11' W 008°43'0 0.0
2018-Jun-19 02:28N 41°11' W 008°43'0 0.0
2018-Jun-19 01:58N 41°11' W 008°43'0 0.0
2018-Jun-19 01:28N 41°11' W 008°43'0 0.0
2018-Jun-19 00:58N 41°11' W 008°43'0 0.0
2018-Jun-19 00:28N 41°11' W 008°43'0 0.0
2018-Jun-18 23:58N 41°11' W 008°43'0 0.0
2018-Jun-18 23:28N 41°11' W 008°43'0 0.0
2018-Jun-18 22:58N 41°11' W 008°43'0 0.0
2018-Jun-18 22:28N 41°11' W 008°43'0 0.0
2018-Jun-18 21:58N 41°11' W 008°43'0 0.0
2018-Jun-18 21:28N 41°11' W 008°43'0 0.0
2018-Jun-18 20:58N 41°11' W 008°43'0 0.0
2018-Jun-18 20:28N 41°11' W 008°43'0 0.0
2018-Jun-18 19:58N 41°11' W 008°43'0 0.0
2018-Jun-18 19:28N 41°11' W 008°43'0 0.0
2018-Jun-18 18:58N 41°11' W 008°43'0 0.0
2018-Jun-18 18:28N 41°11' W 008°43'0 0.0
2018-Jun-18 17:58N 41°11' W 008°43'0 0.0
2018-Jun-18 17:28N 41°11' W 008°43'0 0.0
2018-Jun-18 16:58N 41°11' W 008°43'0 0.5
2018-Jun-18 16:30N 41°11' W 008°42'2 3.8
2018-Jun-18 16:00N 41°09' W 008°43'2 3.3
2018-Jun-18 15:30N 41°07' W 008°44'2 1.0
2018-Jun-18 13:26N 41°06' W 008°46'0 0.0
2018-Jun-18 12:59N 41°06' W 008°46'0 0.0
2018-Jun-18 12:29N 41°06' W 008°46'0 0.1
2018-Jun-18 11:59N 41°06' W 008°46'0 0.0
2018-Jun-18 11:23N 41°06' W 008°46'0 0.0
2018-Jun-18 10:56N 41°06' W 008°46'  
2018-Jun-15 23:44N 41°06' W 008°46'0 0.2
2018-Jun-15 23:26N 41°06' W 008°46'117 8.3
2018-Jun-15 09:17N 39°22' W 009°57'8 9.8
2018-Jun-15 08:29N 39°15' W 009°57'5 9.5
2018-Jun-15 07:58N 39°10' W 009°57'5 9.9
2018-Jun-15 07:30N 39°05' W 009°57'510.0
2018-Jun-15 07:00N 39°00' W 009°57'12 9.9
2018-Jun-15 05:49N 38°48' W 009°57'410.2
2018-Jun-15 05:25N 38°44' W 009°57'910.3
2018-Jun-15 04:32N 38°36' W 009°53'110.4
2018-Jun-15 04:28N 38°35' W 009°52'510.2
2018-Jun-15 04:00N 38°32' W 009°48'611.0
2018-Jun-15 03:30N 38°33' W 009°41'611.3
2018-Jun-15 03:00N 38°34' W 009°34'611.5
2018-Jun-15 02:30N 38°36' W 009°27'611.3
2018-Jun-15 02:00N 38°39' W 009°21'5 9.1
2018-Jun-15 01:30N 38°41' W 009°16'4 6.9
2018-Jun-15 01:00N 38°41' W 009°11'0 0.1
2018-Jun-15 00:26N 38°41' W 009°11'0 0.0
2018-Jun-14 23:56N 38°41' W 009°11'0 0.0
2018-Jun-14 23:29N 38°41' W 009°11'0 0.0
2018-Jun-14 22:50N 38°41' W 009°11'0 0.0
2018-Jun-14 22:29N 38°41' W 009°11'0 0.0
2018-Jun-14 21:53N 38°41' W 009°11'0 0.0
2018-Jun-14 21:26N 38°41' W 009°11'0 0.0
2018-Jun-14 20:59N 38°41' W 009°11'0 0.0
2018-Jun-14 20:29N 38°41' W 009°11'0 0.0
2018-Jun-14 19:47N 38°41' W 009°11'0 0.0
2018-Jun-14 19:23N 38°41' W 009°11'0 0.0
2018-Jun-14 18:59N 38°41' W 009°11'0 0.0
2018-Jun-14 18:20N 38°41' W 009°11'0 0.0
2018-Jun-14 17:59N 38°41' W 009°11'0 0.0
2018-Jun-14 17:20N 38°41' W 009°11'0 0.0
2018-Jun-14 16:59N 38°41' W 009°11'0 0.0
2018-Jun-14 16:29N 38°41' W 009°11'0 0.0
2018-Jun-14 15:59N 38°41' W 009°11'0 0.0
2018-Jun-14 15:29N 38°41' W 009°11'0 0.0
2018-Jun-14 14:59N 38°41' W 009°11'0 0.0
2018-Jun-14 14:26N 38°41' W 009°11'0 0.0
2018-Jun-14 13:50N 38°41' W 009°11'0 0.0
2018-Jun-14 13:23N 38°41' W 009°11'0 0.0
2018-Jun-14 12:59N 38°41' W 009°11'0 0.0
2018-Jun-14 12:23N 38°41' W 009°11'0 0.0
2018-Jun-14 11:59N 38°41' W 009°11'0 0.0
2018-Jun-14 11:17N 38°41' W 009°11'0 0.0
2018-Jun-14 10:56N 38°41' W 009°11'0 0.0
2018-Jun-14 10:26N 38°41' W 009°11'0 0.0
2018-Jun-14 09:59N 38°41' W 009°11'0 0.0
2018-Jun-14 09:11N 38°41' W 009°11'0 0.0
2018-Jun-14 08:59N 38°41' W 009°11'0 0.0
2018-Jun-14 08:14N 38°41' W 009°11'0 0.0
2018-Jun-14 07:59N 38°41' W 009°11'0 0.0
2018-Jun-14 07:26N 38°41' W 009°11'0 0.0
2018-Jun-14 06:59N 38°41' W 009°11'0 0.0
2018-Jun-14 06:29N 38°41' W 009°11'0 0.0
2018-Jun-14 05:59N 38°41' W 009°11'0 0.0
2018-Jun-14 05:29N 38°41' W 009°11'0 0.0
2018-Jun-14 04:59N 38°41' W 009°11'0 0.0
2018-Jun-14 04:29N 38°41' W 009°11'0 0.0
2018-Jun-14 03:35N 38°41' W 009°11'0 0.0
2018-Jun-14 03:23N 38°41' W 009°11'0 0.0
2018-Jun-14 02:53N 38°41' W 009°11'0 0.0
2018-Jun-14 02:23N 38°41' W 009°11'0 0.0
2018-Jun-14 01:59N 38°41' W 009°11'0 0.0
2018-Jun-14 01:29N 38°41' W 009°11'0 0.0
2018-Jun-14 00:53N 38°41' W 009°11'0 0.0
2018-Jun-14 00:20N 38°41' W 009°11'0 0.0
2018-Jun-13 23:47N 38°41' W 009°11'0 0.0
2018-Jun-13 23:17N 38°41' W 009°11'0 0.0
2018-Jun-13 22:59N 38°41' W 009°11'0 0.0
2018-Jun-13 22:20N 38°41' W 009°11'0 0.0
2018-Jun-13 21:59N 38°41' W 009°11'0 0.0
2018-Jun-13 21:26N 38°41' W 009°11'0 0.0
2018-Jun-13 20:56N 38°41' W 009°11'0 0.0
2018-Jun-13 20:29N 38°41' W 009°11'0 0.0
2018-Jun-13 19:59N 38°41' W 009°11'0 0.0
2018-Jun-13 19:23N 38°41' W 009°11'0 0.0
2018-Jun-13 18:59N 38°41' W 009°11'0 0.0
2018-Jun-13 18:29N 38°41' W 009°11'0 0.0
2018-Jun-13 17:44N 38°41' W 009°11'0 0.0
2018-Jun-13 17:29N 38°41' W 009°11'0 0.0
2018-Jun-13 16:59N 38°41' W 009°11'0 0.0
2018-Jun-13 16:26N 38°41' W 009°11'0 0.0
2018-Jun-13 15:50N 38°41' W 009°11'0 0.0
2018-Jun-13 15:29N 38°41' W 009°11'0 0.0
2018-Jun-13 14:56N 38°41' W 009°11'0 0.0
2018-Jun-13 14:26N 38°41' W 009°11'0 0.0
2018-Jun-13 13:32N 38°41' W 009°11'0 0.0
2018-Jun-13 13:14N 38°41' W 009°11'0 0.0
2018-Jun-13 12:59N 38°41' W 009°11'0 0.0
2018-Jun-13 12:23N 38°41' W 009°11'0 0.0
2018-Jun-13 11:59N 38°41' W 009°11'0 0.0
2018-Jun-13 11:26N 38°41' W 009°11'0 0.0
2018-Jun-13 10:50N 38°41' W 009°11'0 0.0
2018-Jun-13 10:29N 38°41' W 009°11'0 0.0
2018-Jun-13 09:38N 38°41' W 009°11'0 0.0
2018-Jun-13 09:29N 38°41' W 009°11'0 0.0
2018-Jun-13 08:41N 38°41' W 009°11'0 0.0
2018-Jun-13 07:47N 38°41' W 009°11'0 0.0
2018-Jun-13 07:11N 38°41' W 009°11'0 0.0
2018-Jun-13 06:59N 38°41' W 009°11'0 0.0
2018-Jun-13 06:26N 38°41' W 009°11'0 0.0
2018-Jun-13 05:59N 38°41' W 009°11'0 0.0
2018-Jun-13 05:23N 38°41' W 009°11'0 0.0
2018-Jun-13 04:59N 38°41' W 009°11'0 0.0
2018-Jun-13 04:29N 38°41' W 009°11'0 0.0
2018-Jun-13 03:59N 38°41' W 009°11'0 0.0
2018-Jun-13 03:29N 38°41' W 009°11'0 0.0
2018-Jun-13 02:59N 38°41' W 009°11'0 0.0
2018-Jun-13 02:29N 38°41' W 009°11'0 0.0
2018-Jun-13 01:59N 38°41' W 009°11'0 0.0
2018-Jun-13 01:29N 38°41' W 009°11'0 0.0
2018-Jun-13 00:56N 38°41' W 009°11'0 0.0
2018-Jun-13 00:29N 38°41' W 009°11'0 0.0
2018-Jun-12 23:59N 38°41' W 009°11'0 0.0
2018-Jun-12 23:23N 38°41' W 009°11'0 0.0
2018-Jun-12 22:59N 38°41' W 009°11'0 0.0
2018-Jun-12 22:29N 38°41' W 009°11'0 0.0
2018-Jun-12 21:59N 38°41' W 009°11'0 0.0
2018-Jun-12 21:26N 38°41' W 009°11'0 0.0
2018-Jun-12 20:41N 38°41' W 009°11'0 0.0
2018-Jun-12 20:20N 38°41' W 009°11'0 0.0
2018-Jun-12 19:53N 38°41' W 009°11'0 0.0
2018-Jun-12 19:20N 38°41' W 009°11'0 0.0
2018-Jun-12 18:41N 38°41' W 009°11'0 0.0
2018-Jun-12 18:23N 38°41' W 009°11'0 0.0
2018-Jun-12 17:59N 38°41' W 009°11'0 0.0
2018-Jun-12 17:26N 38°41' W 009°11'0 0.0
2018-Jun-12 16:59N 38°41' W 009°11'0 0.0
2018-Jun-12 15:44N 38°41' W 009°11'0 0.0
2018-Jun-12 15:26N 38°41' W 009°11'0 0.0
2018-Jun-12 14:59N 38°41' W 009°11'1 1.7
2018-Jun-12 14:30N 38°41' W 009°12'3 5.7
2018-Jun-12 14:00N 38°41' W 009°16'4 8.2
2018-Jun-12 13:30N 38°39' W 009°20'4 7.5
2018-Jun-12 13:01N 38°39' W 009°25'1 2.7
2018-Jun-12 12:31N 38°40' W 009°24'0 0.1
2018-Jun-12 12:00N 38°40' W 009°24'0 0.0
2018-Jun-12 11:29N 38°40' W 009°24'0 0.1
2018-Jun-12 11:00N 38°40' W 009°24'0 0.0
2018-Jun-12 10:31N 38°40' W 009°24'0 0.0
2018-Jun-12 09:59N 38°40' W 009°24'0 0.0
2018-Jun-12 09:30N 38°40' W 009°24'0 0.0
2018-Jun-12 09:00N 38°40' W 009°24'0 0.1
2018-Jun-12 08:30N 38°40' W 009°24'3 5.2
2018-Jun-12 08:00N 38°38' W 009°24'611.3
2018-Jun-12 07:30N 38°32' W 009°23'611.2
2018-Jun-12 07:00N 38°26' W 009°23'611.3
2018-Jun-12 06:30N 38°21' W 009°22'611.2
2018-Jun-12 06:01N 38°15' W 009°22'611.1
2018-Jun-12 05:31N 38°10' W 009°22'611.1
2018-Jun-12 05:00N 38°04' W 009°22'611.2
2018-Jun-12 04:30N 37°58' W 009°22'611.1
2018-Jun-12 04:01N 37°53' W 009°22'611.0
2018-Jun-12 03:30N 37°47' W 009°22'212 9.8
2018-Jun-11 05:55N 35°57' W 005°36'4 9.1
2018-Jun-11 05:31N 35°59' W 005°31'4 8.0
2018-Jun-11 05:00N 35°60' W 005°27'4 7.2
2018-Jun-11 04:30N 35°59' W 005°22'5 9.8
2018-Jun-11 04:00N 35°55' W 005°19'1 2.3
2018-Jun-11 03:29N 35°54' W 005°18'0 0.0
2018-Jun-11 02:59N 35°54' W 005°18'0 0.0
2018-Jun-11 02:29N 35°54' W 005°18'0 0.0
2018-Jun-11 01:59N 35°54' W 005°18'0 0.0
2018-Jun-11 01:29N 35°54' W 005°18'0 0.0
2018-Jun-11 00:59N 35°54' W 005°18'0 0.0
2018-Jun-11 00:29N 35°54' W 005°18'0 0.0
2018-Jun-10 23:59N 35°54' W 005°18'0 0.0
2018-Jun-10 23:29N 35°54' W 005°18'0 0.0
2018-Jun-10 22:59N 35°54' W 005°18'0 0.5
2018-Jun-10 22:30N 35°54' W 005°18'2 3.1
2018-Jun-10 22:00N 35°55' W 005°19'510.7
2018-Jun-10 21:30N 36°01' W 005°19'612.4
2018-Jun-10 21:00N 36°06' W 005°23'4 8.8
2018-Jun-10 20:30N 36°11' W 005°23'0 0.0
2018-Jun-09 19:15N 36°11' W 005°24'0 0.9
2018-Jun-09 19:00N 36°11' W 005°23'2 4.6
2018-Jun-09 18:30N 36°08' W 005°24'1 2.9
2018-Jun-09 18:00N 36°07' W 005°23'4 8.2
2018-Jun-09 17:30N 36°05' W 005°19'5 9.5
2018-Jun-09 17:00N 36°05' W 005°13'1 1.1
2018-Jun-09 16:30N 36°06' W 005°12'1 1.4
2018-Jun-09 16:00N 36°06' W 005°13'  
Track history (hours):
 
Tides and Currents Weather Stations Pressure Air Temp Water Temp Dewpoint Dewpoint Depression Visibility Wind Speed Wind Dir Waves Ship Positions

Atlantis Alhambra

Last reported at 2018-Jun-19 15:38 UTC. Time now 2018-Jun-20 07:51 UTC.
Position N 41°10' W 008°52'.

Length 109 m; draft 5.4 m.

Type: Tanker. MMSI: 249960000.

Date/timePositionNaut miles runAvg speedWind from/ knotsBaromVisibWave heightAir tempDewpointWater temp
2018-Jun-19 15:38N 41°10' W 008°52'111.1
2018-Jun-19 15:30N 41°10' W 008°50'511.0
2018-Jun-19 15:01N 41°10' W 008°43'1 2.0
2018-Jun-19 14:28N 41°11' W 008°43'0 0.0
2018-Jun-19 13:58N 41°11' W 008°43'0 0.0
2018-Jun-19 13:28N 41°11' W 008°43'0 0.0
2018-Jun-19 12:58N 41°11' W 008°43'0 0.0
2018-Jun-19 12:28N 41°11' W 008°43'0 0.0
2018-Jun-19 11:58N 41°11' W 008°43'0 0.0
2018-Jun-19 11:28N 41°11' W 008°43'0 0.0
2018-Jun-19 10:58N 41°11' W 008°43'0 0.0
2018-Jun-19 10:28N 41°11' W 008°43'0 0.0
2018-Jun-19 09:58N 41°11' W 008°43'0 0.0
2018-Jun-19 09:28N 41°11' W 008°43'0 0.0
2018-Jun-19 08:58N 41°11' W 008°43'0 0.0
2018-Jun-19 08:28N 41°11' W 008°43'0 0.0
2018-Jun-19 07:58N 41°11' W 008°43'0 0.0
2018-Jun-19 07:28N 41°11' W 008°43'0 0.0
2018-Jun-19 06:58N 41°11' W 008°43'0 0.0
2018-Jun-19 06:28N 41°11' W 008°43'0 0.0
2018-Jun-19 05:58N 41°11' W 008°43'0 0.0
2018-Jun-19 05:28N 41°11' W 008°43'0 0.0
2018-Jun-19 04:58N 41°11' W 008°43'0 0.0
2018-Jun-19 04:28N 41°11' W 008°43'0 0.0
2018-Jun-19 03:58N 41°11' W 008°43'0 0.0
2018-Jun-19 03:28N 41°11' W 008°43'0 0.0
2018-Jun-19 02:58N 41°11' W 008°43'0 0.0
2018-Jun-19 02:28N 41°11' W 008°43'0 0.0
2018-Jun-19 01:58N 41°11' W 008°43'0 0.0
2018-Jun-19 01:28N 41°11' W 008°43'0 0.0
2018-Jun-19 00:58N 41°11' W 008°43'0 0.0
2018-Jun-19 00:28N 41°11' W 008°43'0 0.0
2018-Jun-18 23:58N 41°11' W 008°43'0 0.0
2018-Jun-18 23:28N 41°11' W 008°43'0 0.0
2018-Jun-18 22:58N 41°11' W 008°43'0 0.0
2018-Jun-18 22:28N 41°11' W 008°43'0 0.0
2018-Jun-18 21:58N 41°11' W 008°43'0 0.0
2018-Jun-18 21:28N 41°11' W 008°43'0 0.0
2018-Jun-18 20:58N 41°11' W 008°43'0 0.0
2018-Jun-18 20:28N 41°11' W 008°43'0 0.0
2018-Jun-18 19:58N 41°11' W 008°43'0 0.0
2018-Jun-18 19:28N 41°11' W 008°43'0 0.0
2018-Jun-18 18:58N 41°11' W 008°43'0 0.0
2018-Jun-18 18:28N 41°11' W 008°43'0 0.0
2018-Jun-18 17:58N 41°11' W 008°43'0 0.0
2018-Jun-18 17:28N 41°11' W 008°43'0 0.0
2018-Jun-18 16:58N 41°11' W 008°43'0 0.5
2018-Jun-18 16:30N 41°11' W 008°42'2 3.8
2018-Jun-18 16:00N 41°09' W 008°43'2 3.3
2018-Jun-18 15:30N 41°07' W 008°44'2 1.0
2018-Jun-18 13:26N 41°06' W 008°46'0 0.0
2018-Jun-18 12:59N 41°06' W 008°46'0 0.0
2018-Jun-18 12:29N 41°06' W 008°46'0 0.1
2018-Jun-18 11:59N 41°06' W 008°46'0 0.0
2018-Jun-18 11:23N 41°06' W 008°46'0 0.0
2018-Jun-18 10:56N 41°06' W 008°46'  
2018-Jun-15 23:44N 41°06' W 008°46'0 0.2
2018-Jun-15 23:26N 41°06' W 008°46'117 8.3
2018-Jun-15 09:17N 39°22' W 009°57'8 9.8
2018-Jun-15 08:29N 39°15' W 009°57'5 9.5
2018-Jun-15 07:58N 39°10' W 009°57'5 9.9
2018-Jun-15 07:30N 39°05' W 009°57'510.0
2018-Jun-15 07:00N 39°00' W 009°57'12 9.9
2018-Jun-15 05:49N 38°48' W 009°57'410.2
2018-Jun-15 05:25N 38°44' W 009°57'910.3
2018-Jun-15 04:32N 38°36' W 009°53'110.4
2018-Jun-15 04:28N 38°35' W 009°52'510.2
2018-Jun-15 04:00N 38°32' W 009°48'611.0
2018-Jun-15 03:30N 38°33' W 009°41'611.3
2018-Jun-15 03:00N 38°34' W 009°34'611.5
2018-Jun-15 02:30N 38°36' W 009°27'611.3
2018-Jun-15 02:00N 38°39' W 009°21'5 9.1
2018-Jun-15 01:30N 38°41' W 009°16'4 6.9
2018-Jun-15 01:00N 38°41' W 009°11'0 0.1
2018-Jun-15 00:26N 38°41' W 009°11'0 0.0
2018-Jun-14 23:56N 38°41' W 009°11'0 0.0
2018-Jun-14 23:29N 38°41' W 009°11'0 0.0
2018-Jun-14 22:50N 38°41' W 009°11'0 0.0
2018-Jun-14 22:29N 38°41' W 009°11'0 0.0
2018-Jun-14 21:53N 38°41' W 009°11'0 0.0
2018-Jun-14 21:26N 38°41' W 009°11'0 0.0
2018-Jun-14 20:59N 38°41' W 009°11'0 0.0
2018-Jun-14 20:29N 38°41' W 009°11'0 0.0
2018-Jun-14 19:47N 38°41' W 009°11'0 0.0
2018-Jun-14 19:23N 38°41' W 009°11'0 0.0
2018-Jun-14 18:59N 38°41' W 009°11'0 0.0
2018-Jun-14 18:20N 38°41' W 009°11'0 0.0
2018-Jun-14 17:59N 38°41' W 009°11'0 0.0
2018-Jun-14 17:20N 38°41' W 009°11'0 0.0
2018-Jun-14 16:59N 38°41' W 009°11'0 0.0
2018-Jun-14 16:29N 38°41' W 009°11'0 0.0
2018-Jun-14 15:59N 38°41' W 009°11'0 0.0
2018-Jun-14 15:29N 38°41' W 009°11'0 0.0
2018-Jun-14 14:59N 38°41' W 009°11'0 0.0
2018-Jun-14 14:26N 38°41' W 009°11'0 0.0
2018-Jun-14 13:50N 38°41' W 009°11'0 0.0
2018-Jun-14 13:23N 38°41' W 009°11'0 0.0
2018-Jun-14 12:59N 38°41' W 009°11'0 0.0
2018-Jun-14 12:23N 38°41' W 009°11'0 0.0
2018-Jun-14 11:59N 38°41' W 009°11'0 0.0
2018-Jun-14 11:17N 38°41' W 009°11'0 0.0
2018-Jun-14 10:56N 38°41' W 009°11'0 0.0
2018-Jun-14 10:26N 38°41' W 009°11'0 0.0
2018-Jun-14 09:59N 38°41' W 009°11'0 0.0
2018-Jun-14 09:11N 38°41' W 009°11'0 0.0
2018-Jun-14 08:59N 38°41' W 009°11'0 0.0
2018-Jun-14 08:14N 38°41' W 009°11'0 0.0
2018-Jun-14 07:59N 38°41' W 009°11'0 0.0
2018-Jun-14 07:26N 38°41' W 009°11'0 0.0
2018-Jun-14 06:59N 38°41' W 009°11'0 0.0
2018-Jun-14 06:29N 38°41' W 009°11'0 0.0
2018-Jun-14 05:59N 38°41' W 009°11'0 0.0
2018-Jun-14 05:29N 38°41' W 009°11'0 0.0
2018-Jun-14 04:59N 38°41' W 009°11'0 0.0
2018-Jun-14 04:29N 38°41' W 009°11'0 0.0
2018-Jun-14 03:35N 38°41' W 009°11'0 0.0
2018-Jun-14 03:23N 38°41' W 009°11'0 0.0
2018-Jun-14 02:53N 38°41' W 009°11'0 0.0
2018-Jun-14 02:23N 38°41' W 009°11'0 0.0
2018-Jun-14 01:59N 38°41' W 009°11'0 0.0
2018-Jun-14 01:29N 38°41' W 009°11'0 0.0
2018-Jun-14 00:53N 38°41' W 009°11'0 0.0
2018-Jun-14 00:20N 38°41' W 009°11'0 0.0
2018-Jun-13 23:47N 38°41' W 009°11'0 0.0
2018-Jun-13 23:17N 38°41' W 009°11'0 0.0
2018-Jun-13 22:59N 38°41' W 009°11'0 0.0
2018-Jun-13 22:20N 38°41' W 009°11'0 0.0
2018-Jun-13 21:59N 38°41' W 009°11'0 0.0
2018-Jun-13 21:26N 38°41' W 009°11'0 0.0
2018-Jun-13 20:56N 38°41' W 009°11'0 0.0
2018-Jun-13 20:29N 38°41' W 009°11'0 0.0
2018-Jun-13 19:59N 38°41' W 009°11'0 0.0
2018-Jun-13 19:23N 38°41' W 009°11'0 0.0
2018-Jun-13 18:59N 38°41' W 009°11'0 0.0
2018-Jun-13 18:29N 38°41' W 009°11'0 0.0
2018-Jun-13 17:44N 38°41' W 009°11'0 0.0
2018-Jun-13 17:29N 38°41' W 009°11'0 0.0
2018-Jun-13 16:59N 38°41' W 009°11'0 0.0
2018-Jun-13 16:26N 38°41' W 009°11'0 0.0
2018-Jun-13 15:50N 38°41' W 009°11'0 0.0
2018-Jun-13 15:29N 38°41' W 009°11'0 0.0
2018-Jun-13 14:56N 38°41' W 009°11'0 0.0
2018-Jun-13 14:26N 38°41' W 009°11'0 0.0
2018-Jun-13 13:32N 38°41' W 009°11'0 0.0
2018-Jun-13 13:14N 38°41' W 009°11'0 0.0
2018-Jun-13 12:59N 38°41' W 009°11'0 0.0
2018-Jun-13 12:23N 38°41' W 009°11'0 0.0
2018-Jun-13 11:59N 38°41' W 009°11'0 0.0
2018-Jun-13 11:26N 38°41' W 009°11'0 0.0
2018-Jun-13 10:50N 38°41' W 009°11'0 0.0
2018-Jun-13 10:29N 38°41' W 009°11'0 0.0
2018-Jun-13 09:38N 38°41' W 009°11'0 0.0
2018-Jun-13 09:29N 38°41' W 009°11'0 0.0
2018-Jun-13 08:41N 38°41' W 009°11'0 0.0
2018-Jun-13 07:47N 38°41' W 009°11'0 0.0
2018-Jun-13 07:11N 38°41' W 009°11'0 0.0
2018-Jun-13 06:59N 38°41' W 009°11'0 0.0
2018-Jun-13 06:26N 38°41' W 009°11'0 0.0
2018-Jun-13 05:59N 38°41' W 009°11'0 0.0
2018-Jun-13 05:23N 38°41' W 009°11'0 0.0
2018-Jun-13 04:59N 38°41' W 009°11'0 0.0
2018-Jun-13 04:29N 38°41' W 009°11'0 0.0
2018-Jun-13 03:59N 38°41' W 009°11'0 0.0
2018-Jun-13 03:29N 38°41' W 009°11'0 0.0
2018-Jun-13 02:59N 38°41' W 009°11'0 0.0
2018-Jun-13 02:29N 38°41' W 009°11'0 0.0
2018-Jun-13 01:59N 38°41' W 009°11'0 0.0
2018-Jun-13 01:29N 38°41' W 009°11'0 0.0
2018-Jun-13 00:56N 38°41' W 009°11'0 0.0
2018-Jun-13 00:29N 38°41' W 009°11'0 0.0
2018-Jun-12 23:59N 38°41' W 009°11'0 0.0
2018-Jun-12 23:23N 38°41' W 009°11'0 0.0
2018-Jun-12 22:59N 38°41' W 009°11'0 0.0
2018-Jun-12 22:29N 38°41' W 009°11'0 0.0
2018-Jun-12 21:59N 38°41' W 009°11'0 0.0
2018-Jun-12 21:26N 38°41' W 009°11'0 0.0
2018-Jun-12 20:41N 38°41' W 009°11'0 0.0
2018-Jun-12 20:20N 38°41' W 009°11'0 0.0
2018-Jun-12 19:53N 38°41' W 009°11'0 0.0
2018-Jun-12 19:20N 38°41' W 009°11'0 0.0
2018-Jun-12 18:41N 38°41' W 009°11'0 0.0
2018-Jun-12 18:23N 38°41' W 009°11'0 0.0
2018-Jun-12 17:59N 38°41' W 009°11'0 0.0
2018-Jun-12 17:26N 38°41' W 009°11'0 0.0
2018-Jun-12 16:59N 38°41' W 009°11'0 0.0
2018-Jun-12 15:44N 38°41' W 009°11'0 0.0
2018-Jun-12 15:26N 38°41' W 009°11'0 0.0
2018-Jun-12 14:59N 38°41' W 009°11'1 1.7
2018-Jun-12 14:30N 38°41' W 009°12'3 5.7
2018-Jun-12 14:00N 38°41' W 009°16'4 8.2
2018-Jun-12 13:30N 38°39' W 009°20'4 7.5
2018-Jun-12 13:01N 38°39' W 009°25'1 2.7
2018-Jun-12 12:31N 38°40' W 009°24'0 0.1
2018-Jun-12 12:00N 38°40' W 009°24'0 0.0
2018-Jun-12 11:29N 38°40' W 009°24'0 0.1
2018-Jun-12 11:00N 38°40' W 009°24'0 0.0
2018-Jun-12 10:31N 38°40' W 009°24'0 0.0
2018-Jun-12 09:59N 38°40' W 009°24'0 0.0
2018-Jun-12 09:30N 38°40' W 009°24'0 0.0
2018-Jun-12 09:00N 38°40' W 009°24'0 0.1
2018-Jun-12 08:30N 38°40' W 009°24'3 5.2
2018-Jun-12 08:00N 38°38' W 009°24'611.3
2018-Jun-12 07:30N 38°32' W 009°23'611.2
2018-Jun-12 07:00N 38°26' W 009°23'611.3
2018-Jun-12 06:30N 38°21' W 009°22'611.2
2018-Jun-12 06:01N 38°15' W 009°22'611.1
2018-Jun-12 05:31N 38°10' W 009°22'611.1
2018-Jun-12 05:00N 38°04' W 009°22'611.2
2018-Jun-12 04:30N 37°58' W 009°22'611.1
2018-Jun-12 04:01N 37°53' W 009°22'611.0
2018-Jun-12 03:30N 37°47' W 009°22'212 9.8
2018-Jun-11 05:55N 35°57' W 005°36'4 9.1
2018-Jun-11 05:31N 35°59' W 005°31'4 8.0
2018-Jun-11 05:00N 35°60' W 005°27'4 7.2
2018-Jun-11 04:30N 35°59' W 005°22'5 9.8
2018-Jun-11 04:00N 35°55' W 005°19'1 2.3
2018-Jun-11 03:29N 35°54' W 005°18'0 0.0
2018-Jun-11 02:59N 35°54' W 005°18'0 0.0
2018-Jun-11 02:29N 35°54' W 005°18'0 0.0
2018-Jun-11 01:59N 35°54' W 005°18'0 0.0
2018-Jun-11 01:29N 35°54' W 005°18'0 0.0
2018-Jun-11 00:59N 35°54' W 005°18'0 0.0
2018-Jun-11 00:29N 35°54' W 005°18'0 0.0
2018-Jun-10 23:59N 35°54' W 005°18'0 0.0
2018-Jun-10 23:29N 35°54' W 005°18'0 0.0
2018-Jun-10 22:59N 35°54' W 005°18'0 0.5
2018-Jun-10 22:30N 35°54' W 005°18'2 3.1
2018-Jun-10 22:00N 35°55' W 005°19'510.7
2018-Jun-10 21:30N 36°01' W 005°19'612.4
2018-Jun-10 21:00N 36°06' W 005°23'4 8.8
2018-Jun-10 20:30N 36°11' W 005°23'0 0.0
2018-Jun-09 19:15N 36°11' W 005°24'0 0.9
2018-Jun-09 19:00N 36°11' W 005°23'2 4.6
2018-Jun-09 18:30N 36°08' W 005°24'1 2.9
2018-Jun-09 18:00N 36°07' W 005°23'4 8.2
2018-Jun-09 17:30N 36°05' W 005°19'5 9.5
2018-Jun-09 17:00N 36°05' W 005°13'1 1.1
2018-Jun-09 16:30N 36°06' W 005°12'1 1.4
2018-Jun-09 16:00N 36°06' W 005°13'  

Dump ship's entire track history